Aérodrome :
LOGIN :

S'inscrire | Disclaimer

   EN    FR    IT 

 










Légende :    VFR   VFR Marginal   IFR   IFR Intensif   IFR Très Intensif
Visi : 
Plafond : 
>= 8 km
>= 3000ft
5 à 8 km
1000 à 3000 ft
1500m à 5 km
500 à 1000 ft
800 à 1500m
200 à 500 ft
< 800m
< 200 ft
Symboles :   Orages  Brouillard  Fortes neiges  Fortes précipitations  Vent > 20 kt
SIGMETs :   Divers  Orages  Givrage  Turbulence  Onde Orograph.  Cendres Volcan.







- Altitude de l'aérodrome : 659 ft
- Code IATA : LGG


EBLG - Liège

DERNIER METAR :
  • 222120Z 10005KT 050V120 CAVOK 06/01 Q1013 NOSIG

METARs EXPIRÉS :
  • 222050Z VRB04KT CAVOK 07/01 Q1013 NOSIG
  • 222020Z 11005KT CAVOK 07/01 Q1013 NOSIG
  • 221950Z 12005KT CAVOK 07/01 Q1013 NOSIG
  • 221920Z 14006KT CAVOK 08/01 Q1013 NOSIG

TAF TAF EBLG
Valide du 22 à 18h jusqu'au 24 à 00h UTC


221710Z 2218/2324 15010KT 9999 FEW045
BECMG 2300/2302 06007KT
PROB30
TEMPO 2303/2308 4500 BR
Pas de NOTAMs connus pour ce terrain.



MET'MAP, la Météo Aéronautique d'un coup d'oeil ! - Copyright ORBIFLY Décembre 2007 - Disclaimer

ORBIFLY MET'MAP TEAM :

Programmation & Développement : Alexandra Zaïnal
Conception & Développement : Baudouin d'Aumeries
Co-Programmation & Développement : Marc-Olivier Méhu
Soutien technique & logistique : Manuel Goepfert

Contact : metmap@orbifly.com




SOURCES & CREDITS :

   NOAA